sensor_id;sensor_type;location;lat;lon;timestamp;P1;durP1;ratioP1;P2;durP2;ratioP2
16699;SDS011;8466;52.286;21.124;2023-04-21T00:01:19;21.17;;;19.47;;
16699;SDS011;8466;52.286;21.124;2023-04-21T00:03:48;20.87;;;19.43;;
16699;SDS011;8466;52.286;21.124;2023-04-21T00:06:17;20.77;;;19.23;;
16699;SDS011;8466;52.286;21.124;2023-04-21T00:08:48;19.67;;;18.27;;
16699;SDS011;8466;52.286;21.124;2023-04-21T00:11:17;19.20;;;17.77;;
16699;SDS011;8466;52.286;21.124;2023-04-21T00:13:47;20.00;;;18.40;;
16699;SDS011;8466;52.286;21.124;2023-04-21T00:16:16;19.93;;;18.50;;
16699;SDS011;8466;52.286;21.124;2023-04-21T00:18:44;19.83;;;18.07;;
16699;SDS011;8466;52.286;21.124;2023-04-21T00:21:14;19.43;;;17.87;;
16699;SDS011;8466;52.286;21.124;2023-04-21T00:23:43;15.43;;;14.23;;
16699;SDS011;8466;52.286;21.124;2023-04-21T00:26:12;17.60;;;16.10;;
16699;SDS011;8466;52.286;21.124;2023-04-21T00:28:41;15.77;;;14.47;;
16699;SDS011;8466;52.286;21.124;2023-04-21T00:31:11;16.33;;;14.90;;
16699;SDS011;8466;52.286;21.124;2023-04-21T00:33:40;15.53;;;14.20;;
16699;SDS011;8466;52.286;21.124;2023-04-21T00:36:08;15.77;;;14.20;;
16699;SDS011;8466;52.286;21.124;2023-04-21T00:38:37;15.43;;;14.10;;
16699;SDS011;8466;52.286;21.124;2023-04-21T00:41:06;14.60;;;13.20;;
16699;SDS011;8466;52.286;21.124;2023-04-21T00:43:35;14.13;;;12.83;;
16699;SDS011;8466;52.286;21.124;2023-04-21T00:46:04;14.17;;;12.97;;
16699;SDS011;8466;52.286;21.124;2023-04-21T00:48:34;15.23;;;13.83;;
16699;SDS011;8466;52.286;21.124;2023-04-21T00:51:02;13.33;;;12.20;;
16699;SDS011;8466;52.286;21.124;2023-04-21T00:53:31;13.87;;;12.73;;
16699;SDS011;8466;52.286;21.124;2023-04-21T00:56:00;14.83;;;13.53;;
16699;SDS011;8466;52.286;21.124;2023-04-21T00:58:28;15.37;;;14.03;;
16699;SDS011;8466;52.286;21.124;2023-04-21T01:00:59;15.27;;;14.07;;
16699;SDS011;8466;52.286;21.124;2023-04-21T01:03:28;16.53;;;15.23;;
16699;SDS011;8466;52.286;21.124;2023-04-21T01:05:59;16.17;;;14.63;;
16699;SDS011;8466;52.286;21.124;2023-04-21T01:08:28;15.17;;;13.53;;
16699;SDS011;8466;52.286;21.124;2023-04-21T01:10:57;16.23;;;14.63;;
16699;SDS011;8466;52.286;21.124;2023-04-21T01:13:25;17.10;;;15.60;;
16699;SDS011;8466;52.286;21.124;2023-04-21T01:15:54;15.87;;;14.43;;
16699;SDS011;8466;52.286;21.124;2023-04-21T01:18:23;15.90;;;14.60;;
16699;SDS011;8466;52.286;21.124;2023-04-21T01:20:51;17.17;;;15.53;;
16699;SDS011;8466;52.286;21.124;2023-04-21T01:23:21;16.60;;;15.20;;
16699;SDS011;8466;52.286;21.124;2023-04-21T01:25:50;19.13;;;17.27;;
16699;SDS011;8466;52.286;21.124;2023-04-21T01:28:21;16.37;;;14.80;;
16699;SDS011;8466;52.286;21.124;2023-04-21T01:30:50;20.63;;;19.00;;
16699;SDS011;8466;52.286;21.124;2023-04-21T01:33:19;17.43;;;15.90;;
16699;SDS011;8466;52.286;21.124;2023-04-21T01:35:48;19.23;;;17.47;;
16699;SDS011;8466;52.286;21.124;2023-04-21T01:38:17;17.70;;;16.17;;
16699;SDS011;8466;52.286;21.124;2023-04-21T01:40:48;18.97;;;17.40;;
16699;SDS011;8466;52.286;21.124;2023-04-21T01:43:19;20.00;;;18.23;;
16699;SDS011;8466;52.286;21.124;2023-04-21T01:45:49;19.47;;;17.67;;
16699;SDS011;8466;52.286;21.124;2023-04-21T01:48:18;19.90;;;18.40;;
16699;SDS011;8466;52.286;21.124;2023-04-21T01:50:47;21.80;;;19.90;;
16699;SDS011;8466;52.286;21.124;2023-04-21T01:53:15;22.33;;;20.70;;
16699;SDS011;8466;52.286;21.124;2023-04-21T01:55:44;23.50;;;21.67;;
16699;SDS011;8466;52.286;21.124;2023-04-21T01:58:14;24.57;;;22.67;;
16699;SDS011;8466;52.286;21.124;2023-04-21T02:00:42;22.27;;;20.57;;
16699;SDS011;8466;52.286;21.124;2023-04-21T02:03:11;21.97;;;20.17;;
16699;SDS011;8466;52.286;21.124;2023-04-21T02:05:40;25.00;;;22.90;;
16699;SDS011;8466;52.286;21.124;2023-04-21T02:08:09;21.33;;;19.70;;
16699;SDS011;8466;52.286;21.124;2023-04-21T02:10:37;20.13;;;18.50;;
16699;SDS011;8466;52.286;21.124;2023-04-21T02:13:06;24.13;;;22.10;;
16699;SDS011;8466;52.286;21.124;2023-04-21T02:15:37;21.73;;;19.93;;
16699;SDS011;8466;52.286;21.124;2023-04-21T02:18:06;22.07;;;20.27;;
16699;SDS011;8466;52.286;21.124;2023-04-21T02:20:34;23.23;;;21.33;;
16699;SDS011;8466;52.286;21.124;2023-04-21T02:23:04;20.80;;;19.20;;
16699;SDS011;8466;52.286;21.124;2023-04-21T02:25:32;22.73;;;20.97;;
16699;SDS011;8466;52.286;21.124;2023-04-21T02:28:01;23.47;;;21.67;;
16699;SDS011;8466;52.286;21.124;2023-04-21T02:30:30;24.67;;;22.57;;
16699;SDS011;8466;52.286;21.124;2023-04-21T02:33:01;30.80;;;28.50;;
16699;SDS011;8466;52.286;21.124;2023-04-21T02:35:30;31.73;;;29.43;;
16699;SDS011;8466;52.286;21.124;2023-04-21T02:38:00;32.67;;;30.23;;
16699;SDS011;8466;52.286;21.124;2023-04-21T02:40:32;27.07;;;24.70;;
16699;SDS011;8466;52.286;21.124;2023-04-21T02:43:01;24.80;;;22.47;;
16699;SDS011;8466;52.286;21.124;2023-04-21T02:45:30;36.07;;;33.30;;
16699;SDS011;8466;52.286;21.124;2023-04-21T02:47:58;71.05;;;66.68;;
16699;SDS011;8466;52.286;21.124;2023-04-21T02:50:28;42.53;;;39.73;;
16699;SDS011;8466;52.286;21.124;2023-04-21T02:52:57;32.13;;;30.03;;
16699;SDS011;8466;52.286;21.124;2023-04-21T02:55:26;37.87;;;35.23;;
16699;SDS011;8466;52.286;21.124;2023-04-21T02:57:54;36.80;;;34.23;;
16699;SDS011;8466;52.286;21.124;2023-04-21T03:00:23;40.27;;;37.67;;
16699;SDS011;8466;52.286;21.124;2023-04-21T03:02:54;40.87;;;38.13;;
16699;SDS011;8466;52.286;21.124;2023-04-21T03:05:23;46.23;;;43.17;;
16699;SDS011;8466;52.286;21.124;2023-04-21T03:07:53;46.60;;;43.70;;
16699;SDS011;8466;52.286;21.124;2023-04-21T03:10:21;20.67;;;18.80;;
16699;SDS011;8466;52.286;21.124;2023-04-21T03:12:50;41.73;;;38.90;;
16699;SDS011;8466;52.286;21.124;2023-04-21T03:15:19;40.97;;;38.03;;
16699;SDS011;8466;52.286;21.124;2023-04-21T03:17:48;37.40;;;34.80;;
16699;SDS011;8466;52.286;21.124;2023-04-21T03:20:17;34.07;;;31.67;;
16699;SDS011;8466;52.286;21.124;2023-04-21T03:22:46;31.00;;;28.80;;
16699;SDS011;8466;52.286;21.124;2023-04-21T03:25:16;26.60;;;24.47;;
16699;SDS011;8466;52.286;21.124;2023-04-21T03:27:44;19.13;;;17.53;;
16699;SDS011;8466;52.286;21.124;2023-04-21T03:30:13;15.80;;;14.40;;
16699;SDS011;8466;52.286;21.124;2023-04-21T03:32:42;14.70;;;13.40;;
16699;SDS011;8466;52.286;21.124;2023-04-21T03:35:10;24.40;;;22.03;;
16699;SDS011;8466;52.286;21.124;2023-04-21T03:37:39;19.53;;;17.63;;
16699;SDS011;8466;52.286;21.124;2023-04-21T03:40:08;17.83;;;15.07;;
16699;SDS011;8466;52.286;21.124;2023-04-21T03:42:39;16.43;;;14.73;;
16699;SDS011;8466;52.286;21.124;2023-04-21T03:45:08;19.70;;;17.70;;
16699;SDS011;8466;52.286;21.124;2023-04-21T03:47:37;29.73;;;25.67;;
16699;SDS011;8466;52.286;21.124;2023-04-21T03:50:06;81.43;;;73.60;;
16699;SDS011;8466;52.286;21.124;2023-04-21T03:52:35;94.27;;;86.43;;
16699;SDS011;8466;52.286;21.124;2023-04-21T03:55:04;84.63;;;77.57;;
16699;SDS011;8466;52.286;21.124;2023-04-21T03:57:37;60.73;;;56.13;;
16699;SDS011;8466;52.286;21.124;2023-04-21T04:00:11;67.73;;;63.70;;
16699;SDS011;8466;52.286;21.124;2023-04-21T04:02:40;53.00;;;49.50;;
16699;SDS011;8466;52.286;21.124;2023-04-21T04:05:09;49.10;;;46.07;;
16699;SDS011;8466;52.286;21.124;2023-04-21T04:07:38;57.97;;;54.20;;
16699;SDS011;8466;52.286;21.124;2023-04-21T04:10:07;42.47;;;39.80;;
16699;SDS011;8466;52.286;21.124;2023-04-21T04:12:37;25.70;;;20.37;;
16699;SDS011;8466;52.286;21.124;2023-04-21T04:15:08;26.33;;;21.50;;
16699;SDS011;8466;52.286;21.124;2023-04-21T04:17:36;18.27;;;16.53;;
16699;SDS011;8466;52.286;21.124;2023-04-21T04:20:05;12.63;;;11.33;;
16699;SDS011;8466;52.286;21.124;2023-04-21T04:22:35;12.63;;;11.43;;
16699;SDS011;8466;52.286;21.124;2023-04-21T04:25:04;21.57;;;19.90;;
16699;SDS011;8466;52.286;21.124;2023-04-21T04:27:32;13.13;;;11.83;;
16699;SDS011;8466;52.286;21.124;2023-04-21T04:30:01;12.37;;;11.37;;
16699;SDS011;8466;52.286;21.124;2023-04-21T04:32:32;12.33;;;11.23;;
16699;SDS011;8466;52.286;21.124;2023-04-21T04:35:03;14.50;;;12.37;;
16699;SDS011;8466;52.286;21.124;2023-04-21T04:37:36;12.30;;;11.10;;
16699;SDS011;8466;52.286;21.124;2023-04-21T04:40:17;12.80;;;9.70;;
16699;SDS011;8466;52.286;21.124;2023-04-21T04:42:46;11.63;;;10.53;;
16699;SDS011;8466;52.286;21.124;2023-04-21T04:45:14;13.00;;;11.70;;
16699;SDS011;8466;52.286;21.124;2023-04-21T04:47:44;14.07;;;11.33;;
16699;SDS011;8466;52.286;21.124;2023-04-21T04:50:13;14.13;;;13.03;;
16699;SDS011;8466;52.286;21.124;2023-04-21T04:52:42;18.63;;;16.77;;
16699;SDS011;8466;52.286;21.124;2023-04-21T04:55:12;19.37;;;17.83;;
16699;SDS011;8466;52.286;21.124;2023-04-21T04:57:41;21.27;;;18.87;;
16699;SDS011;8466;52.286;21.124;2023-04-21T05:00:10;18.37;;;16.13;;
16699;SDS011;8466;52.286;21.124;2023-04-21T05:02:40;30.90;;;19.47;;
16699;SDS011;8466;52.286;21.124;2023-04-21T05:05:10;31.33;;;22.00;;
16699;SDS011;8466;52.286;21.124;2023-04-21T05:07:39;19.33;;;17.40;;
16699;SDS011;8466;52.286;21.124;2023-04-21T05:10:07;22.53;;;21.00;;
16699;SDS011;8466;52.286;21.124;2023-04-21T05:12:36;17.03;;;15.37;;
16699;SDS011;8466;52.286;21.124;2023-04-21T05:15:05;21.07;;;18.67;;
16699;SDS011;8466;52.286;21.124;2023-04-21T05:17:34;19.83;;;18.20;;
16699;SDS011;8466;52.286;21.124;2023-04-21T05:20:03;27.30;;;24.70;;
16699;SDS011;8466;52.286;21.124;2023-04-21T05:22:36;20.40;;;18.80;;
16699;SDS011;8466;52.286;21.124;2023-04-21T05:25:06;28.53;;;22.80;;
16699;SDS011;8466;52.286;21.124;2023-04-21T05:27:36;18.57;;;17.27;;
16699;SDS011;8466;52.286;21.124;2023-04-21T05:30:05;15.50;;;13.87;;
16699;SDS011;8466;52.286;21.124;2023-04-21T05:32:35;17.53;;;15.77;;
16699;SDS011;8466;52.286;21.124;2023-04-21T05:35:04;14.00;;;12.83;;
16699;SDS011;8466;52.286;21.124;2023-04-21T05:37:33;13.90;;;12.80;;
16699;SDS011;8466;52.286;21.124;2023-04-21T05:40:04;20.37;;;18.23;;
16699;SDS011;8466;52.286;21.124;2023-04-21T05:42:33;20.07;;;17.57;;
16699;SDS011;8466;52.286;21.124;2023-04-21T05:45:02;14.77;;;13.27;;
16699;SDS011;8466;52.286;21.124;2023-04-21T05:47:31;21.13;;;18.83;;
16699;SDS011;8466;52.286;21.124;2023-04-21T05:50:00;23.33;;;21.00;;
16699;SDS011;8466;52.286;21.124;2023-04-21T05:52:29;12.03;;;10.93;;
16699;SDS011;8466;52.286;21.124;2023-04-21T05:54:58;11.97;;;10.87;;
16699;SDS011;8466;52.286;21.124;2023-04-21T05:57:28;14.13;;;11.03;;
16699;SDS011;8466;52.286;21.124;2023-04-21T05:59:57;12.40;;;11.47;;
16699;SDS011;8466;52.286;21.124;2023-04-21T06:02:26;11.50;;;10.53;;
16699;SDS011;8466;52.286;21.124;2023-04-21T06:04:55;13.40;;;12.13;;
16699;SDS011;8466;52.286;21.124;2023-04-21T06:07:24;14.47;;;13.27;;
16699;SDS011;8466;52.286;21.124;2023-04-21T06:09:52;15.03;;;13.77;;
16699;SDS011;8466;52.286;21.124;2023-04-21T06:12:23;16.87;;;15.57;;
16699;SDS011;8466;52.286;21.124;2023-04-21T06:14:53;23.27;;;21.67;;
16699;SDS011;8466;52.286;21.124;2023-04-21T06:17:23;20.10;;;18.50;;
16699;SDS011;8466;52.286;21.124;2023-04-21T06:19:52;23.07;;;21.60;;
16699;SDS011;8466;52.286;21.124;2023-04-21T06:22:21;28.57;;;26.40;;
16699;SDS011;8466;52.286;21.124;2023-04-21T06:24:50;27.37;;;25.27;;
16699;SDS011;8466;52.286;21.124;2023-04-21T06:27:18;25.07;;;22.87;;
16699;SDS011;8466;52.286;21.124;2023-04-21T06:29:47;20.90;;;19.50;;
16699;SDS011;8466;52.286;21.124;2023-04-21T06:32:22;19.43;;;17.97;;
16699;SDS011;8466;52.286;21.124;2023-04-21T06:34:51;19.40;;;18.10;;
16699;SDS011;8466;52.286;21.124;2023-04-21T06:37:20;24.13;;;22.33;;
16699;SDS011;8466;52.286;21.124;2023-04-21T06:39:48;21.43;;;19.83;;
16699;SDS011;8466;52.286;21.124;2023-04-21T06:42:17;21.47;;;19.93;;
16699;SDS011;8466;52.286;21.124;2023-04-21T06:44:45;22.30;;;20.80;;
16699;SDS011;8466;52.286;21.124;2023-04-21T06:47:16;22.00;;;20.60;;
16699;SDS011;8466;52.286;21.124;2023-04-21T06:49:46;20.63;;;19.13;;
16699;SDS011;8466;52.286;21.124;2023-04-21T06:52:15;21.03;;;19.40;;
16699;SDS011;8466;52.286;21.124;2023-04-21T06:54:45;17.77;;;16.17;;
16699;SDS011;8466;52.286;21.124;2023-04-21T06:57:14;22.20;;;20.57;;
16699;SDS011;8466;52.286;21.124;2023-04-21T06:59:43;15.73;;;12.90;;
16699;SDS011;8466;52.286;21.124;2023-04-21T07:02:11;20.47;;;18.97;;
16699;SDS011;8466;52.286;21.124;2023-04-21T07:04:40;11.60;;;10.47;;
16699;SDS011;8466;52.286;21.124;2023-04-21T07:07:10;9.93;;;8.97;;
16699;SDS011;8466;52.286;21.124;2023-04-21T07:09:39;10.67;;;9.43;;
16699;SDS011;8466;52.286;21.124;2023-04-21T07:12:08;11.20;;;9.87;;
16699;SDS011;8466;52.286;21.124;2023-04-21T07:14:37;9.70;;;8.70;;
16699;SDS011;8466;52.286;21.124;2023-04-21T07:17:05;9.50;;;8.53;;
16699;SDS011;8466;52.286;21.124;2023-04-21T07:19:34;9.67;;;8.57;;
16699;SDS011;8466;52.286;21.124;2023-04-21T07:22:03;9.27;;;8.47;;
16699;SDS011;8466;52.286;21.124;2023-04-21T07:24:33;8.73;;;8.07;;
16699;SDS011;8466;52.286;21.124;2023-04-21T07:27:03;9.27;;;8.27;;
16699;SDS011;8466;52.286;21.124;2023-04-21T07:29:31;9.43;;;7.70;;
16699;SDS011;8466;52.286;21.124;2023-04-21T07:32:00;9.30;;;8.40;;
16699;SDS011;8466;52.286;21.124;2023-04-21T07:34:29;9.70;;;8.70;;
16699;SDS011;8466;52.286;21.124;2023-04-21T07:36:57;10.87;;;9.00;;
16699;SDS011;8466;52.286;21.124;2023-04-21T07:39:26;11.17;;;8.30;;
16699;SDS011;8466;52.286;21.124;2023-04-21T07:41:56;9.07;;;8.27;;
16699;SDS011;8466;52.286;21.124;2023-04-21T07:44:25;10.07;;;8.93;;
16699;SDS011;8466;52.286;21.124;2023-04-21T07:46:54;9.60;;;8.57;;
16699;SDS011;8466;52.286;21.124;2023-04-21T07:49:23;10.30;;;8.13;;
16699;SDS011;8466;52.286;21.124;2023-04-21T07:51:52;9.87;;;8.87;;
16699;SDS011;8466;52.286;21.124;2023-04-21T07:54:21;9.17;;;8.30;;
16699;SDS011;8466;52.286;21.124;2023-04-21T07:56:49;9.67;;;8.73;;
16699;SDS011;8466;52.286;21.124;2023-04-21T07:59:19;9.57;;;8.53;;
16699;SDS011;8466;52.286;21.124;2023-04-21T08:01:48;9.27;;;8.48;;
16699;SDS011;8466;52.286;21.124;2023-04-21T08:04:17;8.70;;;8.00;;
16699;SDS011;8466;52.286;21.124;2023-04-21T08:06:46;10.17;;;9.27;;
16699;SDS011;8466;52.286;21.124;2023-04-21T08:09:15;10.02;;;9.02;;
16699;SDS011;8466;52.286;21.124;2023-04-21T08:11:44;10.47;;;9.57;;
16699;SDS011;8466;52.286;21.124;2023-04-21T08:14:13;13.33;;;12.23;;
16699;SDS011;8466;52.286;21.124;2023-04-21T08:16:43;9.75;;;8.90;;
16699;SDS011;8466;52.286;21.124;2023-04-21T08:19:12;9.60;;;8.93;;
16699;SDS011;8466;52.286;21.124;2023-04-21T08:21:40;7.70;;;7.00;;
16699;SDS011;8466;52.286;21.124;2023-04-21T08:24:09;9.80;;;8.98;;
16699;SDS011;8466;52.286;21.124;2023-04-21T08:26:38;11.63;;;10.82;;
16699;SDS011;8466;52.286;21.124;2023-04-21T08:29:06;9.75;;;8.75;;
16699;SDS011;8466;52.286;21.124;2023-04-21T08:31:36;32.65;;;30.10;;
16699;SDS011;8466;52.286;21.124;2023-04-21T08:34:06;52.13;;;49.22;;
16699;SDS011;8466;52.286;21.124;2023-04-21T08:36:35;57.63;;;54.33;;
16699;SDS011;8466;52.286;21.124;2023-04-21T08:39:03;33.05;;;31.05;;
16699;SDS011;8466;52.286;21.124;2023-04-21T08:41:33;34.22;;;32.05;;
16699;SDS011;8466;52.286;21.124;2023-04-21T08:44:01;9.55;;;7.30;;
16699;SDS011;8466;52.286;21.124;2023-04-21T08:46:31;8.07;;;7.38;;
16699;SDS011;8466;52.286;21.124;2023-04-21T08:49:01;17.25;;;16.15;;
16699;SDS011;8466;52.286;21.124;2023-04-21T08:51:32;11.30;;;10.60;;
16699;SDS011;8466;52.286;21.124;2023-04-21T08:54:00;18.98;;;17.85;;
16699;SDS011;8466;52.286;21.124;2023-04-21T08:56:29;11.90;;;11.13;;
16699;SDS011;8466;52.286;21.124;2023-04-21T08:58:58;12.77;;;12.02;;
16699;SDS011;8466;52.286;21.124;2023-04-21T09:01:26;21.60;;;20.27;;
16699;SDS011;8466;52.286;21.124;2023-04-21T09:03:58;18.02;;;17.02;;
16699;SDS011;8466;52.286;21.124;2023-04-21T09:06:44;13.73;;;12.88;;
16699;SDS011;8466;52.286;21.124;2023-04-21T09:09:13;13.88;;;12.95;;
16699;SDS011;8466;52.286;21.124;2023-04-21T09:11:42;20.90;;;19.35;;
16699;SDS011;8466;52.286;21.124;2023-04-21T09:14:11;25.60;;;24.00;;
16699;SDS011;8466;52.286;21.124;2023-04-21T09:16:40;26.10;;;24.70;;
16699;SDS011;8466;52.286;21.124;2023-04-21T09:19:12;24.55;;;23.23;;
16699;SDS011;8466;52.286;21.124;2023-04-21T09:21:42;31.42;;;29.42;;
16699;SDS011;8466;52.286;21.124;2023-04-21T09:24:13;29.10;;;27.10;;
16699;SDS011;8466;52.286;21.124;2023-04-21T09:26:41;26.58;;;24.63;;
16699;SDS011;8466;52.286;21.124;2023-04-21T09:29:10;22.60;;;21.30;;
16699;SDS011;8466;52.286;21.124;2023-04-21T09:31:39;30.92;;;28.63;;
16699;SDS011;8466;52.286;21.124;2023-04-21T09:34:15;24.83;;;23.02;;
16699;SDS011;8466;52.286;21.124;2023-04-21T09:36:47;39.90;;;37.63;;
16699;SDS011;8466;52.286;21.124;2023-04-21T09:39:16;52.92;;;50.08;;
16699;SDS011;8466;52.286;21.124;2023-04-21T09:42:05;42.95;;;40.67;;
16699;SDS011;8466;52.286;21.124;2023-04-21T09:44:36;52.25;;;49.20;;
16699;SDS011;8466;52.286;21.124;2023-04-21T09:47:21;50.08;;;47.10;;
16699;SDS011;8466;52.286;21.124;2023-04-21T09:49:51;58.50;;;55.38;;
16699;SDS011;8466;52.286;21.124;2023-04-21T09:52:21;64.82;;;61.17;;
16699;SDS011;8466;52.286;21.124;2023-04-21T09:54:51;65.38;;;61.83;;
16699;SDS011;8466;52.286;21.124;2023-04-21T09:57:27;13.65;;;12.75;;
16699;SDS011;8466;52.286;21.124;2023-04-21T09:59:59;12.32;;;11.30;;
16699;SDS011;8466;52.286;21.124;2023-04-21T10:02:30;14.73;;;13.50;;
16699;SDS011;8466;52.286;21.124;2023-04-21T10:05:02;11.98;;;11.20;;
16699;SDS011;8466;52.286;21.124;2023-04-21T10:07:35;12.70;;;11.85;;
16699;SDS011;8466;52.286;21.124;2023-04-21T10:10:03;21.58;;;18.15;;
16699;SDS011;8466;52.286;21.124;2023-04-21T10:12:35;19.85;;;17.38;;
16699;SDS011;8466;52.286;21.124;2023-04-21T10:15:05;11.40;;;10.60;;
16699;SDS011;8466;52.286;21.124;2023-04-21T10:20:56;10.10;;;9.48;;
16699;SDS011;8466;52.286;21.124;2023-04-21T10:23:30;10.25;;;9.55;;
16699;SDS011;8466;52.286;21.124;2023-04-21T10:26:04;8.98;;;8.27;;
16699;SDS011;8466;52.286;21.124;2023-04-21T10:28:40;9.93;;;7.88;;
16699;SDS011;8466;52.286;21.124;2023-04-21T10:31:20;8.73;;;8.10;;
16699;SDS011;8466;52.286;21.124;2023-04-21T10:36:48;7.95;;;7.35;;
16699;SDS011;8466;52.286;21.124;2023-04-21T10:39:44;9.57;;;6.93;;
16699;SDS011;8466;52.286;21.124;2023-04-21T10:42:26;7.25;;;6.45;;
16699;SDS011;8466;52.286;21.124;2023-04-21T10:45:00;7.55;;;7.07;;
16699;SDS011;8466;52.286;21.124;2023-04-21T10:47:40;7.55;;;6.80;;
16699;SDS011;8466;52.286;21.124;2023-04-21T10:50:15;9.57;;;8.68;;
16699;SDS011;8466;52.286;21.124;2023-04-21T10:52:46;9.45;;;8.73;;
16699;SDS011;8466;52.286;21.124;2023-04-21T10:55:21;8.50;;;7.90;;
16699;SDS011;8466;52.286;21.124;2023-04-21T10:57:53;8.48;;;7.82;;
16699;SDS011;8466;52.286;21.124;2023-04-21T11:00:23;9.82;;;9.15;;
16699;SDS011;8466;52.286;21.124;2023-04-21T11:02:53;9.57;;;8.93;;
16699;SDS011;8466;52.286;21.124;2023-04-21T11:05:27;10.65;;;9.95;;
16699;SDS011;8466;52.286;21.124;2023-04-21T11:08:11;13.15;;;12.23;;
16699;SDS011;8466;52.286;21.124;2023-04-21T11:10:46;11.45;;;10.68;;
16699;SDS011;8466;52.286;21.124;2023-04-21T11:13:20;10.80;;;10.05;;
16699;SDS011;8466;52.286;21.124;2023-04-21T11:16:01;13.05;;;12.25;;
16699;SDS011;8466;52.286;21.124;2023-04-21T11:18:38;14.32;;;13.07;;
16699;SDS011;8466;52.286;21.124;2023-04-21T11:21:08;11.93;;;11.32;;
16699;SDS011;8466;52.286;21.124;2023-04-21T11:23:39;14.18;;;13.18;;
16699;SDS011;8466;52.286;21.124;2023-04-21T11:26:09;13.77;;;12.82;;
16699;SDS011;8466;52.286;21.124;2023-04-21T11:28:39;12.93;;;12.02;;
16699;SDS011;8466;52.286;21.124;2023-04-21T11:31:08;13.70;;;12.73;;
16699;SDS011;8466;52.286;21.124;2023-04-21T11:33:37;13.98;;;13.18;;
16699;SDS011;8466;52.286;21.124;2023-04-21T11:36:06;13.20;;;12.23;;
16699;SDS011;8466;52.286;21.124;2023-04-21T11:38:36;14.80;;;13.90;;
16699;SDS011;8466;52.286;21.124;2023-04-21T11:41:06;14.60;;;13.65;;
16699;SDS011;8466;52.286;21.124;2023-04-21T11:43:38;15.35;;;14.52;;
16699;SDS011;8466;52.286;21.124;2023-04-21T11:46:10;14.02;;;13.13;;
16699;SDS011;8466;52.286;21.124;2023-04-21T11:48:39;13.60;;;12.70;;
16699;SDS011;8466;52.286;21.124;2023-04-21T11:51:13;13.95;;;12.85;;
16699;SDS011;8466;52.286;21.124;2023-04-21T11:53:45;13.55;;;12.50;;
16699;SDS011;8466;52.286;21.124;2023-04-21T11:56:16;11.75;;;10.85;;
16699;SDS011;8466;52.286;21.124;2023-04-21T11:58:49;14.93;;;13.63;;
16699;SDS011;8466;52.286;21.124;2023-04-21T12:01:19;16.60;;;15.30;;
16699;SDS011;8466;52.286;21.124;2023-04-21T12:03:51;12.70;;;11.82;;
16699;SDS011;8466;52.286;21.124;2023-04-21T12:06:22;13.70;;;12.90;;
16699;SDS011;8466;52.286;21.124;2023-04-21T12:08:54;14.40;;;13.43;;
16699;SDS011;8466;52.286;21.124;2023-04-21T12:11:24;12.18;;;11.38;;
16699;SDS011;8466;52.286;21.124;2023-04-21T12:13:56;14.85;;;13.75;;
16699;SDS011;8466;52.286;21.124;2023-04-21T12:16:26;14.75;;;13.75;;
16699;SDS011;8466;52.286;21.124;2023-04-21T12:18:55;12.80;;;11.80;;
16699;SDS011;8466;52.286;21.124;2023-04-21T12:21:27;16.35;;;15.25;;
16699;SDS011;8466;52.286;21.124;2023-04-21T12:23:56;14.35;;;13.23;;
16699;SDS011;8466;52.286;21.124;2023-04-21T12:26:24;12.13;;;11.40;;
16699;SDS011;8466;52.286;21.124;2023-04-21T12:28:53;11.65;;;10.95;;
16699;SDS011;8466;52.286;21.124;2023-04-21T12:31:23;13.15;;;12.15;;
16699;SDS011;8466;52.286;21.124;2023-04-21T12:33:52;15.02;;;13.95;;
16699;SDS011;8466;52.286;21.124;2023-04-21T12:36:20;14.50;;;13.65;;
16699;SDS011;8466;52.286;21.124;2023-04-21T12:38:51;16.00;;;14.73;;
16699;SDS011;8466;52.286;21.124;2023-04-21T12:41:20;12.15;;;11.30;;
16699;SDS011;8466;52.286;21.124;2023-04-21T12:43:48;14.27;;;13.23;;
16699;SDS011;8466;52.286;21.124;2023-04-21T12:46:17;14.23;;;13.02;;
16699;SDS011;8466;52.286;21.124;2023-04-21T12:48:48;11.77;;;11.07;;
16699;SDS011;8466;52.286;21.124;2023-04-21T12:51:17;12.52;;;11.57;;
16699;SDS011;8466;52.286;21.124;2023-04-21T12:53:46;11.95;;;11.00;;
16699;SDS011;8466;52.286;21.124;2023-04-21T12:56:15;14.57;;;13.43;;
16699;SDS011;8466;52.286;21.124;2023-04-21T12:58:43;11.88;;;11.15;;
16699;SDS011;8466;52.286;21.124;2023-04-21T13:01:13;13.73;;;12.50;;
16699;SDS011;8466;52.286;21.124;2023-04-21T13:03:42;11.80;;;10.82;;
16699;SDS011;8466;52.286;21.124;2023-04-21T13:06:13;13.55;;;12.57;;
16699;SDS011;8466;52.286;21.124;2023-04-21T13:08:41;13.30;;;12.30;;
16699;SDS011;8466;52.286;21.124;2023-04-21T13:11:10;12.73;;;11.75;;
16699;SDS011;8466;52.286;21.124;2023-04-21T13:13:39;12.27;;;11.52;;
16699;SDS011;8466;52.286;21.124;2023-04-21T13:16:07;11.48;;;10.50;;
16699;SDS011;8466;52.286;21.124;2023-04-21T13:18:36;12.50;;;11.70;;
16699;SDS011;8466;52.286;21.124;2023-04-21T13:21:05;12.73;;;11.63;;
16699;SDS011;8466;52.286;21.124;2023-04-21T13:23:35;12.05;;;11.35;;
16699;SDS011;8466;52.286;21.124;2023-04-21T13:26:04;12.88;;;12.07;;
16699;SDS011;8466;52.286;21.124;2023-04-21T13:28:33;12.88;;;11.95;;
16699;SDS011;8466;52.286;21.124;2023-04-21T13:31:02;11.25;;;10.65;;
16699;SDS011;8466;52.286;21.124;2023-04-21T13:33:31;14.20;;;13.20;;
16699;SDS011;8466;52.286;21.124;2023-04-21T13:36:00;13.98;;;12.93;;
16699;SDS011;8466;52.286;21.124;2023-04-21T13:38:30;10.88;;;9.98;;
16699;SDS011;8466;52.286;21.124;2023-04-21T13:41:01;12.23;;;11.40;;
16699;SDS011;8466;52.286;21.124;2023-04-21T13:43:29;11.60;;;10.43;;
16699;SDS011;8466;52.286;21.124;2023-04-21T13:45:58;11.07;;;10.48;;
16699;SDS011;8466;52.286;21.124;2023-04-21T13:48:27;11.30;;;10.55;;
16699;SDS011;8466;52.286;21.124;2023-04-21T13:50:56;12.85;;;11.95;;
16699;SDS011;8466;52.286;21.124;2023-04-21T13:53:24;12.18;;;11.30;;
16699;SDS011;8466;52.286;21.124;2023-04-21T13:55:53;13.43;;;12.27;;
16699;SDS011;8466;52.286;21.124;2023-04-21T13:58:24;13.20;;;12.20;;
16699;SDS011;8466;52.286;21.124;2023-04-21T14:00:53;11.65;;;10.65;;
16699;SDS011;8466;52.286;21.124;2023-04-21T14:03:22;12.60;;;11.80;;
16699;SDS011;8466;52.286;21.124;2023-04-21T14:05:50;13.25;;;12.45;;
16699;SDS011;8466;52.286;21.124;2023-04-21T14:08:19;13.23;;;12.35;;
16699;SDS011;8466;52.286;21.124;2023-04-21T14:10:48;14.80;;;13.85;;
16699;SDS011;8466;52.286;21.124;2023-04-21T14:13:17;14.40;;;12.90;;
16699;SDS011;8466;52.286;21.124;2023-04-21T14:16:04;12.38;;;11.38;;
16699;SDS011;8466;52.286;21.124;2023-04-21T14:18:34;11.95;;;11.30;;
16699;SDS011;8466;52.286;21.124;2023-04-21T14:21:06;12.73;;;11.50;;
16699;SDS011;8466;52.286;21.124;2023-04-21T14:23:34;23.83;;;22.08;;
16699;SDS011;8466;52.286;21.124;2023-04-21T14:26:03;13.85;;;13.00;;
16699;SDS011;8466;52.286;21.124;2023-04-21T14:28:32;21.90;;;20.15;;
16699;SDS011;8466;52.286;21.124;2023-04-21T14:31:01;13.25;;;12.25;;
16699;SDS011;8466;52.286;21.124;2023-04-21T14:33:31;15.45;;;14.43;;
16699;SDS011;8466;52.286;21.124;2023-04-21T14:36:00;14.48;;;13.25;;
16699;SDS011;8466;52.286;21.124;2023-04-21T14:38:29;13.52;;;12.82;;
16699;SDS011;8466;52.286;21.124;2023-04-21T14:40:59;14.10;;;13.30;;
16699;SDS011;8466;52.286;21.124;2023-04-21T14:43:28;14.00;;;12.18;;
16699;SDS011;8466;52.286;21.124;2023-04-21T14:45:58;16.58;;;15.57;;
16699;SDS011;8466;52.286;21.124;2023-04-21T14:48:26;18.08;;;17.00;;